Terminal Aerodrome Forecast
Issued by NWS

Home | Current Version | Previous Version | Text Only | Print | Product List | Glossary On
Versions: 1 2 3 4 5 6 7 8 9 10 11 12 13 14 15 16
000
FTUS44 KLZK 100536
TAFPBF
TAF
KPBF 100536Z 1006/1106 08003KT P6SM OVC050
     FM101700 11004KT P6SM SCT050 SCT250
     FM110000 13007KT P6SM SCT250=

USA.gov is the U.S. government's official web portal to all federal, state and local government web resources and services.